Time;durP1;ratioP1;P1;durP2;ratioP2;P2;SDS_P1;SDS_P2;PMS_P1;PMS_P2;Temp;Humidity;BMP_temperature;BMP_pressure;BME280_temperature;BME280_humidity;BME280_pressure;Samples;Min_cycle;Max_cycle;Signal;HPM_P1;HPM_P2
2022/01/07 00:02:11;;;;;;;4.70;3.23;;;1.70;99.90;;;;;;5036919;28;20186;-94
2022/01/07 00:04:37;;;;;;;4.80;3.10;;;1.70;99.90;;;;;;5036423;28;20178;-93
2022/01/07 00:07:04;;;;;;;4.13;3.33;;;1.60;99.90;;;;;;5036495;28;20637;-92
2022/01/07 00:09:30;;;;;;;3.03;2.75;;;1.60;99.90;;;;;;5039462;28;20538;-94
2022/01/07 00:11:55;;;;;;;7.37;3.80;;;1.60;99.90;;;;;;5036977;28;20178;-94
2022/01/07 00:14:21;;;;;;;4.17;3.03;;;1.60;99.90;;;;;;5036821;28;20269;-94
2022/01/07 00:16:47;;;;;;;7.23;4.23;;;1.60;99.90;;;;;;5057921;28;20463;-94
2022/01/07 00:19:15;;;;;;;4.07;3.67;;;1.60;99.90;;;;;;5036791;28;20185;-95
2022/01/07 00:21:41;;;;;;;3.92;2.95;;;1.50;99.90;;;;;;5039255;28;20202;-94
2022/01/07 00:24:07;;;;;;;5.20;3.07;;;1.50;99.90;;;;;;5036723;28;20181;-92
2022/01/07 00:26:32;;;;;;;3.63;3.20;;;1.50;99.90;;;;;;5036830;28;20449;-93
2022/01/07 00:28:58;;;;;;;3.60;3.23;;;1.50;99.90;;;;;;5054069;28;20166;-91
2022/01/07 00:31:24;;;;;;;6.53;3.00;;;1.40;99.90;;;;;;5036849;28;20206;-94
2022/01/07 00:33:50;;;;;;;4.13;2.70;;;1.40;99.90;;;;;;5058203;28;20241;-92
2022/01/07 00:36:15;;;;;;;4.03;3.20;;;1.40;99.90;;;;;;5038794;28;20226;-94
2022/01/07 00:38:41;;;;;;;3.40;2.80;;;1.40;99.90;;;;;;5036637;28;20180;-94
2022/01/07 00:41:07;;;;;;;5.13;3.10;;;1.40;99.90;;;;;;5037576;28;20206;-91
2022/01/07 00:43:33;;;;;;;3.30;3.00;;;1.30;99.90;;;;;;5040028;28;20181;-92
2022/01/07 00:45:59;;;;;;;4.80;3.33;;;1.30;99.90;;;;;;5041633;28;20205;-92
2022/01/07 00:48:25;;;;;;;4.55;3.35;;;1.30;99.90;;;;;;5044765;28;20403;-94
2022/01/07 00:50:50;;;;;;;8.90;3.90;;;1.30;99.90;;;;;;5040062;28;20206;-94
2022/01/07 00:53:17;;;;;;;6.87;4.70;;;1.20;99.90;;;;;;5057635;28;20417;-94
2022/01/07 00:55:43;;;;;;;4.80;4.30;;;1.20;99.90;;;;;;5040194;28;20230;-92
2022/01/07 00:58:09;;;;;;;7.47;4.53;;;1.20;99.90;;;;;;5041494;28;20174;-92
2022/01/07 01:00:35;;;;;;;5.95;4.30;;;1.20;99.90;;;;;;5043156;28;20459;-94
2022/01/07 01:03:01;;;;;;;4.70;3.85;;;1.10;99.90;;;;;;5071671;28;20173;-92
2022/01/07 01:05:27;;;;;;;6.07;3.37;;;1.10;99.90;;;;;;5055241;28;20231;-93
2022/01/07 01:07:53;;;;;;;4.93;3.50;;;1.10;99.90;;;;;;5050863;28;20184;-92
2022/01/07 01:10:22;;;;;;;7.03;3.73;;;1.10;99.90;;;;;;5042246;28;20626;-92
2022/01/07 01:12:49;;;;;;;5.60;3.50;;;1.10;99.90;;;;;;5039756;28;20727;-94
2022/01/07 01:15:20;;;;;;;4.38;3.97;;;1.00;99.90;;;;;;5039433;28;20205;-92
2022/01/07 01:17:46;;;;;;;5.50;3.00;;;1.00;99.90;;;;;;5039147;28;20217;-94
2022/01/07 01:20:12;;;;;;;3.73;3.40;;;1.00;99.90;;;;;;5039391;28;20251;-91
2022/01/07 01:22:39;;;;;;;5.00;4.35;;;1.00;99.90;;;;;;5057309;28;20787;-91
2022/01/07 01:25:06;;;;;;;5.43;4.03;;;0.90;99.90;;;;;;5042761;28;20639;-94
2022/01/07 01:27:33;;;;;;;6.35;4.28;;;0.90;99.90;;;;;;5039214;28;20190;-94
2022/01/07 01:30:00;;;;;;;6.30;4.00;;;0.90;99.90;;;;;;5039033;28;20206;-92
2022/01/07 01:32:26;;;;;;;6.75;4.20;;;0.80;99.90;;;;;;5039119;28;20182;-93
2022/01/07 01:34:52;;;;;;;6.87;4.70;;;0.80;99.90;;;;;;5042668;28;20215;-93
2022/01/07 01:37:18;;;;;;;6.73;4.07;;;0.80;99.90;;;;;;5050409;28;20186;-94
2022/01/07 01:39:43;;;;;;;5.93;4.57;;;0.80;99.90;;;;;;5051912;28;20202;-90
2022/01/07 01:42:09;;;;;;;5.00;4.30;;;0.80;99.90;;;;;;5039337;28;20443;-94
2022/01/07 01:44:35;;;;;;;6.82;4.47;;;0.70;99.90;;;;;;5057878;28;20627;-94
2022/01/07 01:47:02;;;;;;;5.63;5.03;;;0.70;99.90;;;;;;5039079;28;20182;-93
2022/01/07 01:49:28;;;;;;;8.70;4.28;;;0.70;99.90;;;;;;5041855;28;21031;-95
2022/01/07 01:51:54;;;;;;;6.03;5.05;;;0.70;99.90;;;;;;5038540;28;20182;-96
2022/01/07 01:54:20;;;;;;;7.20;5.07;;;0.70;99.90;;;;;;5038942;28;20181;-94
2022/01/07 01:56:46;;;;;;;7.45;4.40;;;0.70;99.90;;;;;;5038581;28;20577;-92
2022/01/07 01:59:12;;;;;;;7.47;4.10;;;0.60;99.90;;;;;;5038706;28;20185;-93
2022/01/07 02:01:40;;;;;;;10.13;5.07;;;0.60;99.90;;;;;;5034355;28;20239;-94
2022/01/07 02:04:06;;;;;;;4.88;4.32;;;0.60;99.90;;;;;;5040096;28;20427;-93
2022/01/07 02:06:32;;;;;;;8.20;5.15;;;0.60;99.90;;;;;;5038658;28;20239;-93
2022/01/07 02:08:58;;;;;;;8.90;6.43;;;0.60;99.90;;;;;;5038693;28;20272;-95
2022/01/07 02:11:24;;;;;;;9.23;6.33;;;0.60;99.90;;;;;;5038766;28;20450;-92
2022/01/07 02:13:55;;;;;;;10.60;9.07;;;0.60;99.90;;;;;;5058990;28;20804;-94
2022/01/07 02:16:24;;;;;;;11.25;7.85;;;0.60;99.90;;;;;;5038709;28;20259;-95
2022/01/07 02:18:50;;;;;;;12.20;8.80;;;0.60;99.90;;;;;;5038080;28;20219;-94
2022/01/07 02:21:16;;;;;;;12.27;8.33;;;0.60;99.90;;;;;;5038159;28;20663;-94
2022/01/07 02:23:42;;;;;;;12.77;9.27;;;0.60;99.90;;;;;;5056116;28;20459;-93
2022/01/07 02:26:08;;;;;;;10.20;7.90;;;0.60;99.90;;;;;;5038162;28;20208;-94
2022/01/07 02:28:34;;;;;;;9.27;7.25;;;0.60;99.90;;;;;;5041323;28;20181;-94
2022/01/07 02:31:00;;;;;;;10.10;7.95;;;0.60;99.90;;;;;;5039289;28;20251;-92
2022/01/07 02:33:26;;;;;;;8.40;6.83;;;0.60;99.90;;;;;;5037825;28;20627;-91
2022/01/07 02:35:52;;;;;;;10.83;8.03;;;0.60;99.90;;;;;;5037482;28;20488;-92
2022/01/07 02:38:18;;;;;;;8.33;6.30;;;0.60;99.90;;;;;;5041223;28;20211;-92
2022/01/07 02:40:44;;;;;;;9.10;6.83;;;0.50;99.90;;;;;;5048840;28;20209;-93
2022/01/07 02:43:10;;;;;;;11.13;8.18;;;0.50;99.90;;;;;;5058191;28;20421;-94
2022/01/07 02:45:35;;;;;;;13.87;10.10;;;0.50;99.90;;;;;;5047711;28;20240;-93
2022/01/07 02:48:03;;;;;;;15.40;12.30;;;0.50;99.90;;;;;;5055383;28;20174;-93
2022/01/07 02:50:35;;;;;;;16.15;10.55;;;0.50;99.90;;;;;;5039900;28;20194;-92
2022/01/07 02:53:03;;;;;;;17.35;9.75;;;0.50;99.90;;;;;;5038127;28;20194;-95
2022/01/07 02:55:29;;;;;;;12.35;9.68;;;0.40;99.90;;;;;;5037231;28;20219;-94
2022/01/07 02:57:55;;;;;;;13.70;9.63;;;0.40;99.90;;;;;;5037753;28;20182;-94
2022/01/07 03:00:22;;;;;;;15.05;8.70;;;0.40;99.90;;;;;;5037238;28;20201;-93
2022/01/07 03:02:49;;;;;;;11.48;8.35;;;0.40;99.90;;;;;;5040419;28;20174;-92
2022/01/07 03:05:16;;;;;;;11.65;9.25;;;0.40;99.90;;;;;;5054532;28;20186;-94
2022/01/07 03:07:42;;;;;;;13.23;9.18;;;0.40;99.90;;;;;;5036956;28;20226;-94
2022/01/07 03:10:09;;;;;;;11.63;8.88;;;0.40;99.90;;;;;;5055007;28;20532;-92
2022/01/07 03:12:36;;;;;;;12.40;9.77;;;0.30;99.90;;;;;;5037100;28;20204;-92
2022/01/07 03:15:06;;;;;;;16.00;10.85;;;0.30;99.90;;;;;;5037234;28;20236;-94
2022/01/07 03:17:32;;;;;;;16.48;11.43;;;0.30;99.90;;;;;;5039622;28;20189;-93
2022/01/07 03:20:00;;;;;;;10.43;9.33;;;0.30;99.90;;;;;;5037363;28;20542;-92
2022/01/07 03:22:26;;;;;;;15.98;10.60;;;0.20;99.90;;;;;;5037688;28;20435;-92
2022/01/07 03:24:51;;;;;;;12.47;9.90;;;0.20;99.90;;;;;;5049451;28;20325;-95
2022/01/07 03:27:17;;;;;;;13.17;10.80;;;0.20;99.90;;;;;;5058851;28;20437;-93
2022/01/07 03:29:43;;;;;;;16.73;11.30;;;0.20;99.90;;;;;;5070217;28;20234;-92
2022/01/07 03:32:10;;;;;;;15.60;11.00;;;0.10;99.90;;;;;;5047589;28;20474;-92
2022/01/07 03:34:35;;;;;;;12.52;11.23;;;0.10;99.90;;;;;;5052871;28;20162;-93
2022/01/07 03:37:01;;;;;;;15.47;12.67;;;0.10;99.90;;;;;;5047666;28;20197;-94
2022/01/07 03:39:27;;;;;;;14.10;10.27;;;0.10;99.90;;;;;;5049610;28;20661;-94
2022/01/07 03:41:52;;;;;;;12.53;9.67;;;0.00;99.90;;;;;;5054325;28;20427;-91
2022/01/07 03:44:18;;;;;;;15.40;9.37;;;0.00;99.90;;;;;;5043211;28;20185;-94
2022/01/07 03:46:44;;;;;;;11.63;10.00;;;0.00;99.90;;;;;;5055553;28;20632;-93
2022/01/07 03:49:10;;;;;;;11.60;8.40;;;0.00;99.90;;;;;;5040213;28;20177;-93
2022/01/07 03:51:35;;;;;;;8.90;7.80;;;0.00;99.90;;;;;;5049781;28;20210;-93
2022/01/07 03:54:01;;;;;;;9.87;8.10;;;-0.10;99.90;;;;;;5046370;28;20465;-92
2022/01/07 03:56:27;;;;;;;11.57;8.10;;;-0.10;99.90;;;;;;5050154;28;20550;-90
2022/01/07 03:58:53;;;;;;;11.80;8.07;;;-0.10;99.90;;;;;;5055064;28;20888;-93
2022/01/07 04:01:18;;;;;;;10.90;8.80;;;-0.10;99.90;;;;;;5037096;28;20750;-91
2022/01/07 04:03:44;;;;;;;9.20;7.07;;;-0.10;99.90;;;;;;5036826;28;20273;-95
2022/01/07 04:06:10;;;;;;;9.60;7.03;;;-0.10;99.90;;;;;;5039754;28;20299;-92
2022/01/07 04:08:36;;;;;;;7.53;6.40;;;-0.20;99.90;;;;;;5037090;28;20914;-91
2022/01/07 04:11:02;;;;;;;12.87;7.23;;;-0.20;99.90;;;;;;5036865;28;20304;-94
2022/01/07 04:13:27;;;;;;;10.10;6.40;;;-0.20;99.90;;;;;;5036990;28;20419;-92
2022/01/07 04:15:53;;;;;;;13.23;6.47;;;-0.20;99.90;;;;;;5052088;28;20510;-93
2022/01/07 04:18:18;;;;;;;15.00;7.80;;;-0.30;99.90;;;;;;5041245;28;20215;-91
2022/01/07 04:20:44;;;;;;;9.73;7.17;;;-0.30;99.90;;;;;;5042369;28;20197;-95
2022/01/07 04:23:10;;;;;;;7.00;5.63;;;-0.30;99.90;;;;;;5040864;28;20214;-95
2022/01/07 04:25:36;;;;;;;8.30;6.50;;;-0.20;99.90;;;;;;5040105;28;20469;-96
2022/01/07 04:28:06;;;;;;;8.77;6.20;;;-0.20;99.90;;;;;;5040424;28;20418;-91
2022/01/07 04:30:34;;;;;;;14.13;7.65;;;-0.20;99.90;;;;;;5057753;28;20441;-95
2022/01/07 04:33:02;;;;;;;8.20;6.82;;;-0.20;99.90;;;;;;5043306;28;20185;-91
2022/01/07 04:35:30;;;;;;;15.88;8.57;;;-0.10;99.90;;;;;;5041725;28;20209;-92
2022/01/07 04:37:56;;;;;;;18.00;9.60;;;-0.10;99.90;;;;;;5059324;28;20200;-94
2022/01/07 04:40:22;;;;;;;16.10;9.37;;;-0.10;99.90;;;;;;5040030;28;20197;-94
2022/01/07 04:42:48;;;;;;;11.55;8.88;;;-0.10;99.90;;;;;;5040079;28;20726;-95
2022/01/07 04:45:14;;;;;;;11.27;8.02;;;-0.10;99.90;;;;;;5050961;28;20209;-95
2022/01/07 04:47:41;;;;;;;12.77;9.23;;;-0.10;99.90;;;;;;5040350;28;20185;-92
2022/01/07 04:50:13;;;;;;;17.52;7.40;;;-0.10;99.90;;;;;;5040082;28;20906;-94
2022/01/07 04:52:43;;;;;;;11.13;7.18;;;-0.10;99.90;;;;;;5057470;28;20198;-94
2022/01/07 04:55:14;;;;;;;13.05;8.35;;;-0.10;99.90;;;;;;5039642;28;20217;-95
2022/01/07 04:57:40;;;;;;;8.82;7.20;;;-0.10;99.90;;;;;;5043374;28;20189;-95
2022/01/07 05:00:06;;;;;;;10.13;6.25;;;-0.20;99.90;;;;;;5057436;28;20197;-91
2022/01/07 05:02:32;;;;;;;10.50;6.88;;;-0.20;99.90;;;;;;5039698;28;20185;-91
2022/01/07 05:04:58;;;;;;;11.40;7.87;;;-0.20;99.90;;;;;;5057361;28;20224;-92
2022/01/07 05:07:23;;;;;;;11.87;7.43;;;-0.20;99.90;;;;;;5039780;28;20474;-92
2022/01/07 05:09:49;;;;;;;12.67;7.80;;;-0.10;99.90;;;;;;5043381;28;20733;-92
2022/01/07 05:12:15;;;;;;;10.73;7.80;;;-0.10;99.90;;;;;;5055594;28;20193;-94
2022/01/07 05:14:41;;;;;;;10.50;8.50;;;-0.10;99.90;;;;;;5054770;28;20420;-92
2022/01/07 05:17:07;;;;;;;9.53;6.83;;;-0.10;99.90;;;;;;5043678;28;20651;-95
2022/01/07 05:19:33;;;;;;;12.70;8.05;;;0.00;99.90;;;;;;5041141;28;20177;-94
2022/01/07 05:21:58;;;;;;;10.57;7.20;;;0.00;99.90;;;;;;5043816;28;20273;-92
2022/01/07 05:24:24;;;;;;;11.90;6.00;;;0.00;99.90;;;;;;5052435;28;20178;-94
2022/01/07 05:26:50;;;;;;;6.60;5.87;;;0.10;99.90;;;;;;5045682;28;20182;-94
2022/01/07 05:29:15;;;;;;;8.70;6.13;;;0.10;99.90;;;;;;5043117;28;20177;-94
2022/01/07 05:31:41;;;;;;;9.87;6.50;;;0.10;99.90;;;;;;5044394;28;20214;-91
2022/01/07 05:34:07;;;;;;;9.43;5.90;;;0.10;99.90;;;;;;5039961;28;20184;-91
2022/01/07 05:36:33;;;;;;;9.27;5.33;;;0.00;99.90;;;;;;5041975;28;20252;-93
2022/01/07 05:38:58;;;;;;;8.50;6.00;;;0.10;99.90;;;;;;5041223;28;20193;-93
2022/01/07 05:41:24;;;;;;;11.80;5.70;;;0.10;99.90;;;;;;5053303;28;20462;-94
2022/01/07 05:43:50;;;;;;;5.40;4.63;;;0.10;99.90;;;;;;5046170;28;20181;-94
2022/01/07 05:46:16;;;;;;;7.50;5.40;;;0.10;99.90;;;;;;5057281;28;20413;-91
2022/01/07 05:48:46;;;;;;;8.63;5.88;;;0.10;99.90;;;;;;5045487;28;20182;-92
2022/01/07 05:51:13;;;;;;;8.77;5.45;;;0.10;99.90;;;;;;5046237;28;20593;-94
2022/01/07 05:53:40;;;;;;;9.25;5.00;;;0.00;99.90;;;;;;5038767;28;20177;-94
2022/01/07 05:56:06;;;;;;;12.63;9.80;;;0.00;99.90;;;;;;5038290;28;20248;-94
2022/01/07 05:58:32;;;;;;;16.13;9.77;;;0.10;99.90;;;;;;5050047;28;20241;-93
2022/01/07 06:00:58;;;;;;;15.40;11.98;;;0.20;99.90;;;;;;5055158;28;20216;-92
2022/01/07 06:03:24;;;;;;;13.53;9.80;;;0.20;99.90;;;;;;5055769;28;20181;-91
2022/01/07 06:05:49;;;;;;;10.20;9.10;;;0.30;99.90;;;;;;5055667;28;20502;-91
2022/01/07 06:08:15;;;;;;;10.53;6.83;;;0.40;99.90;;;;;;5057354;28;20166;-94
2022/01/07 06:10:41;;;;;;;7.83;5.80;;;0.50;99.90;;;;;;5038477;28;20209;-94
2022/01/07 06:13:06;;;;;;;11.50;6.10;;;0.70;99.90;;;;;;5042047;28;20185;-92
2022/01/07 06:15:32;;;;;;;7.70;6.37;;;0.80;99.90;;;;;;5043421;28;20689;-94
2022/01/07 06:17:59;;;;;;;12.10;6.40;;;0.90;99.90;;;;;;5029194;28;20194;-93
2022/01/07 06:20:26;;;;;;;6.47;5.28;;;0.90;99.90;;;;;;5028464;28;20423;-94
2022/01/07 06:22:51;;;;;;;11.10;6.70;;;0.80;99.90;;;;;;5037043;28;20177;-92
2022/01/07 06:25:17;;;;;;;11.77;7.43;;;0.60;99.90;;;;;;5040210;28;20208;-94
2022/01/07 06:27:43;;;;;;;30.90;9.57;;;0.50;99.90;;;;;;5026658;28;20187;-91
2022/01/07 06:30:10;;;;;;;11.10;7.00;;;0.40;99.90;;;;;;5049340;28;20564;-94
2022/01/07 06:32:36;;;;;;;9.45;6.53;;;0.30;99.90;;;;;;5030970;28;20272;-93
2022/01/07 06:35:02;;;;;;;9.75;6.72;;;0.20;99.90;;;;;;5036617;28;20205;-92
2022/01/07 06:37:28;;;;;;;12.32;9.15;;;0.00;99.90;;;;;;5031154;28;20209;-91
2022/01/07 06:39:55;;;;;;;14.07;9.63;;;0.00;99.90;;;;;;5041290;28;20663;-92
2022/01/07 06:42:21;;;;;;;11.15;8.48;;;-0.10;99.90;;;;;;5047429;28;20177;-91
2022/01/07 06:44:47;;;;;;;23.57;9.57;;;-0.30;99.90;;;;;;5053483;28;20228;-93
2022/01/07 06:47:13;;;;;;;16.40;9.80;;;-0.30;99.90;;;;;;5059646;28;20878;-93
2022/01/07 06:49:39;;;;;;;13.10;10.00;;;-0.40;99.90;;;;;;5047700;28;20832;-93
2022/01/07 06:52:05;;;;;;;14.67;10.57;;;-0.40;99.90;;;;;;5034353;28;20266;-92
2022/01/07 06:54:32;;;;;;;21.45;12.00;;;-0.50;99.90;;;;;;5036277;28;20232;-94
2022/01/07 06:56:59;;;;;;;14.18;9.65;;;-0.50;99.90;;;;;;5035032;28;20210;-92
2022/01/07 06:59:24;;;;;;;13.70;9.68;;;-0.50;99.90;;;;;;5057156;28;20178;-90
2022/01/07 07:01:50;;;;;;;14.40;9.80;;;-0.60;99.90;;;;;;5054766;28;20189;-93
2022/01/07 07:04:17;;;;;;;15.63;11.03;;;-0.60;99.90;;;;;;5056044;28;20419;-93
2022/01/07 07:06:43;;;;;;;16.40;11.68;;;-0.60;99.90;;;;;;5050668;28;20754;-92
2022/01/07 07:09:09;;;;;;;15.27;11.00;;;-0.60;99.90;;;;;;5042293;28;20237;-93
2022/01/07 07:11:35;;;;;;;27.83;19.38;;;-0.60;99.90;;;;;;5024146;28;20266;-92
2022/01/07 07:14:00;;;;;;;38.10;25.20;;;-0.60;99.90;;;;;;5035903;28;20217;-92
2022/01/07 07:16:26;;;;;;;36.33;22.03;;;-0.60;99.90;;;;;;5034775;28;20544;-91
2022/01/07 07:18:52;;;;;;;29.00;19.40;;;-0.60;99.90;;;;;;5036546;28;20201;-90
2022/01/07 07:21:18;;;;;;;26.87;16.90;;;-0.50;99.90;;;;;;5042649;28;20210;-90
2022/01/07 07:23:44;;;;;;;26.33;15.00;;;-0.50;99.90;;;;;;5040142;28;20235;-93
2022/01/07 07:26:09;;;;;;;27.30;16.20;;;-0.50;99.90;;;;;;5053753;28;20233;-92
2022/01/07 07:28:36;;;;;;;40.03;17.13;;;-0.50;99.90;;;;;;5040578;28;20766;-93
2022/01/07 07:31:10;;;;;;;44.35;21.52;;;-0.40;99.90;;;;;;5052949;28;20202;-93
2022/01/07 07:36:27;;;;;;;35.65;19.20;;;-0.30;99.90;;;;;;5057713;28;20231;-92
2022/01/07 07:38:58;;;;;;;42.47;19.73;;;-0.20;99.90;;;;;;5039718;28;20331;-94
2022/01/07 07:41:24;;;;;;;37.13;17.85;;;-0.10;99.90;;;;;;5038013;28;20214;-94
2022/01/07 07:43:50;;;;;;;33.28;16.40;;;0.00;99.90;;;;;;5040090;28;20562;-92
2022/01/07 07:46:20;;;;;;;38.63;16.97;;;0.40;99.90;;;;;;5057774;28;20202;-94
2022/01/07 07:48:46;;;;;;;24.55;14.57;;;0.70;99.90;;;;;;5038704;28;20239;-92
2022/01/07 07:51:13;;;;;;;26.60;13.85;;;1.20;99.90;;;;;;5047905;28;20312;-92
2022/01/07 07:53:39;;;;;;;23.40;13.02;;;1.90;99.90;;;;;;5048115;28;20174;-94
2022/01/07 07:56:05;;;;;;;20.10;14.00;;;2.60;99.90;;;;;;5050195;28;20274;-92
2022/01/07 07:58:31;;;;;;;17.92;11.23;;;3.30;99.90;;;;;;5062016;28;20178;-91
2022/01/07 08:00:57;;;;;;;17.77;10.63;;;4.00;99.90;;;;;;5030785;28;20255;-94
2022/01/07 08:03:24;;;;;;;13.30;9.57;;;4.70;99.90;;;;;;5064675;28;20181;-94
2022/01/07 08:05:50;;;;;;;11.20;8.65;;;5.20;99.90;;;;;;5045657;28;20478;-92
2022/01/07 08:08:15;;;;;;;11.13;8.53;;;5.90;99.90;;;;;;5052164;28;20177;-92
2022/01/07 08:10:47;;;;;;;17.33;9.90;;;6.70;99.90;;;;;;5043189;28;20461;-94
2022/01/07 08:15:59;;;;;;;16.30;10.30;;;8.40;99.90;;;;;;5058662;28;20614;-94
2022/01/07 08:18:29;;;;;;;20.80;11.00;;;9.10;99.90;;;;;;5038765;28;21038;-92
2022/01/07 08:20:58;;;;;;;18.15;11.13;;;9.70;99.90;;;;;;5029675;28;20202;-95
2022/01/07 08:23:24;;;;;;;16.50;8.70;;;10.10;99.80;;;;;;5044094;28;20178;-91
2022/01/07 08:25:50;;;;;;;17.03;8.93;;;10.20;98.40;;;;;;5034014;28;20213;-91
2022/01/07 08:28:17;;;;;;;13.90;10.23;;;10.20;97.70;;;;;;5026661;28;20182;-92
2022/01/07 08:36:10;;;;;;;13.30;8.35;;;10.20;96.50;;;;;;5071238;28;20620;-91
2022/01/07 08:38:36;;;;;;;9.48;7.30;;;10.10;97.00;;;;;;5039632;28;20178;-95
2022/01/07 08:41:02;;;;;;;7.43;6.32;;;10.10;95.80;;;;;;5055237;28;20683;-95
2022/01/07 08:43:28;;;;;;;8.88;6.57;;;10.00;95.60;;;;;;5039223;28;20654;-94
2022/01/07 08:45:54;;;;;;;7.47;6.50;;;9.80;95.40;;;;;;5055827;28;20198;-91
2022/01/07 08:48:20;;;;;;;8.43;6.67;;;9.70;95.40;;;;;;5037494;28;20419;-95
2022/01/07 08:50:46;;;;;;;8.80;7.10;;;9.80;95.30;;;;;;5040459;28;20186;-93
2022/01/07 08:53:13;;;;;;;13.95;9.27;;;10.00;94.90;;;;;;5041634;28;20397;-92
2022/01/07 08:55:39;;;;;;;8.60;7.70;;;10.40;94.40;;;;;;5055527;28;20229;-92
2022/01/07 08:58:05;;;;;;;8.48;5.85;;;10.60;94.00;;;;;;5042053;28;20174;-94
2022/01/07 09:00:32;;;;;;;6.65;5.50;;;10.90;93.10;;;;;;5053227;28;20575;-95
2022/01/07 09:03:00;;;;;;;6.53;5.70;;;11.10;92.40;;;;;;5038288;28;20722;-91
2022/01/07 09:05:26;;;;;;;13.73;8.63;;;11.60;91.90;;;;;;5035424;28;20205;-92
2022/01/07 09:07:52;;;;;;;52.38;29.40;;;11.90;90.80;;;;;;5034049;28;20252;-94
2022/01/07 09:10:18;;;;;;;45.85;22.75;;;11.90;90.10;;;;;;5031278;28;20213;-92
2022/01/07 09:12:45;;;;;;;11.37;8.47;;;12.00;90.10;;;;;;5039980;28;20580;-91
2022/01/07 09:15:10;;;;;;;6.55;4.93;;;12.20;88.60;;;;;;5044771;28;20933;-95
2022/01/07 09:17:36;;;;;;;8.47;7.53;;;12.30;87.90;;;;;;5053598;28;20178;-91
2022/01/07 09:20:04;;;;;;;6.68;5.68;;;12.30;85.70;;;;;;5038577;28;20574;-94
2022/01/07 09:22:30;;;;;;;6.53;5.40;;;12.20;86.20;;;;;;5037569;28;20177;-92
2022/01/07 09:24:55;;;;;;;7.33;6.60;;;12.10;85.80;;;;;;5044090;28;20201;-95
2022/01/07 09:27:21;;;;;;;9.60;7.97;;;12.10;84.20;;;;;;5043715;28;20188;-92
2022/01/07 09:29:46;;;;;;;7.07;5.33;;;12.30;84.20;;;;;;5049527;28;20206;-92
2022/01/07 09:32:13;;;;;;;8.37;7.07;;;12.50;83.90;;;;;;5031119;28;20186;-93
2022/01/07 09:34:38;;;;;;;9.95;6.20;;;12.60;83.30;;;;;;5028161;28;20659;-95
2022/01/07 09:37:05;;;;;;;11.83;9.10;;;12.60;82.60;;;;;;5025548;28;20210;-94
2022/01/07 09:39:32;;;;;;;11.45;8.15;;;12.60;82.30;;;;;;5037347;28;20643;-94
2022/01/07 09:42:04;;;;;;;7.15;5.95;;;12.60;80.70;;;;;;5040999;28;20188;-91
2022/01/07 09:44:30;;;;;;;9.93;7.80;;;12.60;80.60;;;;;;5029780;28;20194;-95
2022/01/07 09:46:57;;;;;;;9.33;7.10;;;12.70;80.20;;;;;;5034087;28;20193;-90
2022/01/07 09:49:23;;;;;;;15.63;10.43;;;12.70;79.90;;;;;;5040566;28;20492;-91
2022/01/07 09:51:49;;;;;;;12.98;9.65;;;12.70;79.00;;;;;;5034030;28;20665;-95
2022/01/07 09:54:16;;;;;;;25.23;14.07;;;12.70;79.00;;;;;;5036197;28;20174;-91
2022/01/07 09:56:42;;;;;;;19.60;12.32;;;12.40;78.10;;;;;;5052755;28;20482;-92
2022/01/07 09:59:08;;;;;;;10.90;8.53;;;12.30;76.70;;;;;;5053437;28;20243;-95
2022/01/07 10:01:54;;;;;;;9.35;6.47;;;12.30;77.70;;;;;;5062824;28;20477;-91
2022/01/07 10:04:33;;;;;;;10.13;7.85;;;12.20;78.30;;;;;;5050900;28;20632;-91
2022/01/07 10:07:20;;;;;;;9.30;6.47;;;12.10;78.80;;;;;;5061572;28;20229;-91
2022/01/07 10:10:07;;;;;;;7.78;6.63;;;12.20;75.30;;;;;;5062996;28;20197;-95
2022/01/07 10:13:00;;;;;;;8.50;6.90;;;12.10;75.10;;;;;;5032966;28;20209;-95
2022/01/07 10:15:28;;;;;;;13.85;9.95;;;11.80;75.00;;;;;;5023639;28;20698;-95
2022/01/07 10:17:58;;;;;;;7.55;5.50;;;11.60;76.20;;;;;;5034136;28;20260;-95
2022/01/07 10:20:29;;;;;;;10.85;7.03;;;11.40;77.10;;;;;;5046138;28;20217;-94
2022/01/07 10:23:10;;;;;;;5.70;4.38;;;11.20;76.40;;;;;;5046928;28;20178;-92
2022/01/07 10:25:38;;;;;;;6.45;5.30;;;11.00;77.30;;;;;;5018174;28;20248;-95
2022/01/07 10:28:09;;;;;;;7.57;5.80;;;10.60;77.40;;;;;;5049967;28;20674;-94
2022/01/07 10:30:47;;;;;;;6.90;4.57;;;10.30;77.90;;;;;;5034796;28;20232;-91
2022/01/07 10:33:17;;;;;;;7.05;4.25;;;10.20;78.60;;;;;;5033033;28;20863;-90
2022/01/07 10:35:44;;;;;;;7.57;5.72;;;10.00;77.40;;;;;;5026502;28;20646;-94
2022/01/07 10:38:19;;;;;;;7.53;6.00;;;9.80;78.40;;;;;;5035802;28;20198;-94
2022/01/07 10:40:47;;;;;;;8.32;5.85;;;9.60;79.80;;;;;;5033063;28;20216;-91
2022/01/07 10:43:33;;;;;;;7.40;4.57;;;9.60;80.20;;;;;;5037585;28;20174;-93
2022/01/07 10:46:11;;;;;;;7.28;4.30;;;9.30;79.40;;;;;;5035270;28;20218;-95
2022/01/07 10:48:51;;;;;;;8.95;6.13;;;9.10;81.00;;;;;;5031034;28;20560;-91
2022/01/07 10:51:22;;;;;;;4.72;4.25;;;8.80;80.80;;;;;;5042096;28;20252;-95
2022/01/07 10:53:56;;;;;;;4.05;3.65;;;8.70;80.60;;;;;;5035519;28;20181;-95
2022/01/07 10:56:32;;;;;;;4.85;4.18;;;8.60;81.70;;;;;;5023432;28;20222;-93
2022/01/07 10:59:12;;;;;;;7.00;4.57;;;8.50;82.60;;;;;;5042714;28;20208;-94
2022/01/07 11:01:46;;;;;;;6.43;3.95;;;8.30;83.00;;;;;;5037257;28;20242;-91
2022/01/07 11:04:15;;;;;;;3.85;2.92;;;8.20;82.80;;;;;;5032999;28;20176;-95
2022/01/07 11:06:42;;;;;;;4.95;3.67;;;8.10;82.90;;;;;;5029689;28;20237;-95
2022/01/07 11:09:10;;;;;;;4.05;3.65;;;8.00;82.60;;;;;;5029708;28;20186;-90
2022/01/07 11:11:51;;;;;;;5.57;3.60;;;8.00;83.10;;;;;;5034826;28;20217;-94
2022/01/07 11:14:22;;;;;;;4.75;3.75;;;7.90;84.00;;;;;;5033736;28;20170;-95
2022/01/07 11:16:48;;;;;;;4.80;3.22;;;7.80;84.00;;;;;;5022910;28;20564;-93
2022/01/07 11:19:19;;;;;;;3.47;3.17;;;7.70;83.90;;;;;;5038664;28;20177;-91
2022/01/07 11:21:49;;;;;;;5.07;3.97;;;7.60;83.70;;;;;;5036411;28;20549;-91
2022/01/07 11:24:36;;;;;;;4.45;3.75;;;7.60;84.00;;;;;;5030134;28;20256;-94
2022/01/07 11:27:17;;;;;;;4.95;3.60;;;7.60;84.60;;;;;;5024503;28;20202;-94
2022/01/07 11:30:06;;;;;;;4.68;3.80;;;7.60;83.70;;;;;;5022723;28;20328;-94
2022/01/07 11:32:40;;;;;;;5.97;3.45;;;7.50;84.30;;;;;;5025970;28;20197;-92
2022/01/07 11:35:21;;;;;;;5.05;3.95;;;7.50;85.20;;;;;;5034670;28;20201;-89
2022/01/07 11:37:51;;;;;;;4.40;3.35;;;7.50;85.10;;;;;;5035962;28;20208;-92
2022/01/07 11:40:29;;;;;;;3.70;3.38;;;7.60;84.00;;;;;;5036104;28;20221;-94
2022/01/07 11:43:00;;;;;;;3.45;2.83;;;7.70;83.70;;;;;;5032595;28;20191;-94
2022/01/07 11:45:35;;;;;;;7.03;4.68;;;7.70;83.60;;;;;;5026522;28;20217;-91
2022/01/07 11:48:12;;;;;;;3.50;3.20;;;7.80;83.60;;;;;;5034148;28;20184;-92
2022/01/07 11:51:11;;;;;;;4.25;3.70;;;7.80;83.70;;;;;;5037853;28;20225;-91
2022/01/07 11:53:40;;;;;;;4.40;3.70;;;7.80;83.10;;;;;;5028078;28;20228;-94
2022/01/07 11:56:08;;;;;;;5.20;3.75;;;7.80;82.40;;;;;;5044561;28;20222;-95
2022/01/07 11:58:56;;;;;;;6.63;4.32;;;7.80;82.00;;;;;;5044189;28;20654;-95
2022/01/07 12:01:30;;;;;;;12.90;6.90;;;7.80;83.40;;;;;;5050541;28;20286;-92
2022/01/07 12:03:59;;;;;;;9.38;5.32;;;7.70;83.40;;;;;;5029167;28;20227;-95
2022/01/07 12:06:28;;;;;;;9.10;5.40;;;7.60;83.60;;;;;;5026544;28;20324;-89
2022/01/07 12:09:08;;;;;;;6.75;4.20;;;7.60;84.80;;;;;;5030309;28;20216;-95
2022/01/07 12:11:37;;;;;;;8.23;5.43;;;7.60;84.70;;;;;;5038892;28;20276;-90
2022/01/07 12:14:07;;;;;;;7.60;5.50;;;7.60;84.80;;;;;;5054479;28;20178;-95
2022/01/07 12:16:34;;;;;;;9.73;6.70;;;7.60;85.20;;;;;;5040598;28;20226;-96
2022/01/07 12:19:11;;;;;;;5.18;4.15;;;7.60;84.50;;;;;;5034229;28;20182;-91
2022/01/07 12:21:48;;;;;;;4.03;3.40;;;7.60;83.30;;;;;;5032232;28;20255;-94
2022/01/07 12:24:16;;;;;;;4.82;3.63;;;7.70;82.50;;;;;;5041039;28;20280;-90
2022/01/07 12:26:42;;;;;;;4.85;3.45;;;7.70;83.10;;;;;;5035204;28;20198;-96
2022/01/07 12:29:15;;;;;;;4.90;3.63;;;7.60;83.20;;;;;;5051724;28;20661;-91
2022/01/07 12:31:54;;;;;;;6.97;4.20;;;7.60;83.20;;;;;;5018238;28;20433;-92
2022/01/07 12:34:31;;;;;;;5.43;3.95;;;7.60;83.20;;;;;;5052453;28;20205;-96
2022/01/07 12:36:58;;;;;;;5.32;3.95;;;7.60;84.60;;;;;;5027515;28;20248;-96
2022/01/07 12:39:30;;;;;;;6.63;4.38;;;7.60;83.30;;;;;;5036391;28;20201;-96
2022/01/07 12:41:57;;;;;;;19.95;9.75;;;7.50;83.60;;;;;;5035179;28;20235;-91
2022/01/07 12:44:23;;;;;;;27.90;13.52;;;7.70;92.30;;;;;;5029880;28;20182;-94
2022/01/07 12:46:55;;;;;;;19.17;11.77;;;8.00;94.50;;;;;;5036686;28;20194;-96
2022/01/07 12:49:38;;;;;;;19.27;10.00;;;8.20;95.90;;;;;;5048725;28;20687;-96
2022/01/07 12:52:06;;;;;;;7.30;4.70;;;8.40;97.20;;;;;;5035750;28;20210;-96
2022/01/07 12:54:33;;;;;;;9.63;8.15;;;8.60;98.10;;;;;;5034219;28;20243;-96
2022/01/07 12:56:59;;;;;;;9.60;7.50;;;8.60;92.40;;;;;;5043191;28;20213;-92
2022/01/07 12:59:26;;;;;;;11.60;7.77;;;8.40;90.00;;;;;;5035975;28;20222;-90
2022/01/07 13:01:55;;;;;;;9.43;7.50;;;8.30;88.40;;;;;;5038863;28;20439;-96
2022/01/07 13:04:23;;;;;;;6.45;5.03;;;8.20;86.20;;;;;;5034200;28;20194;-96